createdAt,value
2017-02-15T00:00:23.263Z,14.08
2017-02-15T00:01:34.029Z,14.08
2017-02-15T00:02:44.385Z,13.79
2017-02-15T00:03:54.231Z,14.17
2017-02-15T00:05:05.001Z,14.08
2017-02-15T00:06:15.383Z,13.89
2017-02-15T00:07:26.150Z,13.98
2017-02-15T00:08:36.531Z,14.17
2017-02-15T00:09:47.555Z,13.89
2017-02-15T00:10:57.929Z,13.79
2017-02-15T00:12:08.315Z,13.98
2017-02-15T00:13:19.077Z,13.79
2017-02-15T00:14:29.446Z,13.89
2017-02-15T00:15:39.676Z,13.89
2017-02-15T00:16:50.447Z,13.89
2017-02-15T00:18:01.200Z,13.79
2017-02-15T00:19:11.583Z,13.89
2017-02-15T00:20:22.342Z,14.17
2017-02-15T00:21:32.954Z,13.79
2017-02-15T00:22:43.327Z,13.98
2017-02-15T00:23:53.372Z,14.17
2017-02-15T00:25:04.131Z,13.98
2017-02-15T00:26:14.896Z,13.89
2017-02-15T00:27:25.905Z,13.7
2017-02-15T00:28:36.681Z,13.79
2017-02-15T00:29:47.474Z,13.89
2017-02-15T00:30:57.849Z,13.89
2017-02-15T00:32:08.598Z,13.7
2017-02-15T00:33:19.272Z,13.79
2017-02-15T00:34:30.023Z,13.89
2017-02-15T00:35:40.832Z,13.7
2017-02-15T00:36:51.622Z,14.17
2017-02-15T00:38:01.970Z,13.79
2017-02-15T00:39:12.980Z,13.98
2017-02-15T00:40:23.348Z,14.17
2017-02-15T00:41:33.734Z,14.08
2017-02-15T00:42:43.307Z,14.08
2017-02-15T00:43:53.670Z,13.89
2017-02-15T00:45:04.687Z,13.98
2017-02-15T00:46:15.468Z,14.08
2017-02-15T00:47:25.880Z,13.89
2017-02-15T00:48:36.255Z,13.98
2017-02-15T00:49:45.829Z,14.17
2017-02-15T00:50:56.469Z,14.08
2017-02-15T00:52:06.863Z,14.08
2017-02-15T00:53:17.234Z,13.79
2017-02-15T00:54:27.999Z,13.79
2017-02-15T00:55:38.373Z,13.89
2017-02-15T00:56:48.988Z,13.89
2017-02-15T00:57:59.739Z,14.08
2017-02-15T00:59:10.491Z,13.89
2017-02-15T01:00:20.449Z,13.89
2017-02-15T01:01:30.871Z,13.98
2017-02-15T01:02:41.148Z,13.89
2017-02-15T01:03:51.929Z,13.7
2017-02-15T01:05:02.680Z,13.89
2017-02-15T01:06:13.448Z,13.89
2017-02-15T01:07:24.221Z,13.79
2017-02-15T01:08:34.883Z,14.08
2017-02-15T01:09:45.641Z,13.98
2017-02-15T01:10:56.422Z,13.98
2017-02-15T01:12:07.196Z,14.17
2017-02-15T01:13:17.552Z,14.17
2017-02-15T01:14:28.564Z,14.08
2017-02-15T01:15:39.327Z,13.89
2017-02-15T01:16:50.105Z,13.89
2017-02-15T01:18:00.851Z,13.89
2017-02-15T01:19:11.607Z,13.89
2017-02-15T01:20:22.230Z,13.79
2017-02-15T01:21:32.600Z,13.89
2017-02-15T01:22:42.953Z,13.7
2017-02-15T01:23:53.705Z,13.98
2017-02-15T01:25:04.079Z,13.89
2017-02-15T01:26:15.102Z,13.89
2017-02-15T01:27:25.061Z,13.98
2017-02-15T01:28:35.814Z,13.89
2017-02-15T01:29:46.219Z,14.17
2017-02-15T01:30:56.572Z,14.27
2017-02-15T01:32:07.581Z,14.27
2017-02-15T01:33:18.334Z,14.27
2017-02-15T01:34:29.095Z,14.27
2017-02-15T01:35:39.483Z,14.27
2017-02-15T01:36:50.242Z,14.17
2017-02-15T01:38:01.548Z,14.37
2017-02-15T01:39:11.524Z,14.17
2017-02-15T01:40:22.277Z,13.98
2017-02-15T01:41:32.658Z,14.27
2017-02-15T01:42:43.425Z,14.08
2017-02-15T01:43:54.936Z,13.79
2017-02-15T01:45:05.688Z,13.79
2017-02-15T01:46:16.063Z,13.89
2017-02-15T01:47:26.021Z,14.08
2017-02-15T01:48:36.385Z,14.08
2017-02-15T01:49:47.403Z,13.98
2017-02-15T01:50:58.171Z,13.98
2017-02-15T01:52:08.575Z,14.17
2017-02-15T01:53:19.343Z,14.17
2017-02-15T01:54:30.100Z,14.27
2017-02-15T01:55:40.317Z,14.08
2017-02-15T01:56:51.093Z,14.27
2017-02-15T01:58:01.490Z,13.89
2017-02-15T01:59:11.454Z,13.98
2017-02-15T02:00:22.228Z,13.79
2017-02-15T02:01:33.233Z,13.89
2017-02-15T02:02:43.997Z,13.89
2017-02-15T02:03:54.748Z,13.89
2017-02-15T02:05:05.515Z,13.98
2017-02-15T02:06:15.869Z,13.79
2017-02-15T02:07:26.873Z,14.08
2017-02-15T02:08:37.645Z,13.89
2017-02-15T02:09:48.406Z,13.89
2017-02-15T02:10:59.150Z,13.98
2017-02-15T02:12:09.509Z,13.98
2017-02-15T02:13:20.145Z,14.08
2017-02-15T02:14:30.493Z,13.98
2017-02-15T02:15:40.859Z,13.98
2017-02-15T02:16:51.272Z,13.98
2017-02-15T02:18:02.027Z,14.17
2017-02-15T02:19:12.640Z,13.89
2017-02-15T02:20:23.399Z,14.08
2017-02-15T02:21:33.757Z,14.08
2017-02-15T02:22:44.503Z,14.37
2017-02-15T02:23:55.261Z,13.98
2017-02-15T02:25:05.888Z,13.89
2017-02-15T02:26:16.647Z,13.79
2017-02-15T02:27:27.424Z,14.27
2017-02-15T02:28:37.817Z,13.79
2017-02-15T02:29:48.576Z,14.17
2017-02-15T02:30:59.645Z,13.98
2017-02-15T02:32:10.013Z,13.89
2017-02-15T02:33:20.797Z,13.79
2017-02-15T02:34:31.556Z,13.79
2017-02-15T02:35:42.332Z,13.7
2017-02-15T02:36:53.338Z,14.08
2017-02-15T02:38:03.702Z,14.17
2017-02-15T02:39:14.461Z,14.27
2017-02-15T02:40:24.819Z,14.08
2017-02-15T02:41:35.170Z,14.08
2017-02-15T02:42:46.205Z,13.89
2017-02-15T02:43:56.965Z,14.17
2017-02-15T02:45:07.351Z,14.08
2017-02-15T02:46:18.125Z,13.98
2017-02-15T02:47:28.490Z,13.89
2017-02-15T02:48:39.510Z,13.79
2017-02-15T02:49:49.875Z,13.98
2017-02-15T02:51:00.227Z,13.89
2017-02-15T02:52:10.236Z,13.79
2017-02-15T02:53:20.995Z,13.89
2017-02-15T02:54:32.013Z,13.79
2017-02-15T02:55:42.777Z,13.89
2017-02-15T02:56:53.139Z,13.98
2017-02-15T02:58:03.917Z,13.7
2017-02-15T02:59:14.669Z,13.89
2017-02-15T03:00:25.680Z,13.7
2017-02-15T03:01:36.442Z,13.79
2017-02-15T03:02:47.190Z,13.98
2017-02-15T03:03:57.565Z,13.98
2017-02-15T03:05:08.359Z,13.98
2017-02-15T03:06:18.973Z,13.89
2017-02-15T03:07:29.536Z,14.08
2017-02-15T03:08:40.285Z,13.7
2017-02-15T03:09:51.034Z,13.7
2017-02-15T03:11:01.789Z,14.17
2017-02-15T03:12:12.483Z,13.89
2017-02-15T03:13:23.277Z,13.89
2017-02-15T03:14:34.048Z,13.98
2017-02-15T03:15:44.793Z,13.7
2017-02-15T03:16:56.173Z,13.89
2017-02-15T03:18:06.780Z,13.89
2017-02-15T03:19:17.158Z,13.98
2017-02-15T03:20:27.529Z,13.89
2017-02-15T03:21:37.898Z,13.79
2017-02-15T03:22:48.657Z,13.98
2017-02-15T03:23:59.667Z,14.08
2017-02-15T03:25:10.045Z,13.79
2017-02-15T03:26:20.809Z,13.89
2017-02-15T03:27:31.194Z,13.79
2017-02-15T03:28:41.972Z,13.89
2017-02-15T03:29:53.021Z,13.79
2017-02-15T03:31:02.995Z,13.98
2017-02-15T03:32:13.747Z,13.89
2017-02-15T03:33:24.523Z,13.7
2017-02-15T03:34:34.899Z,13.7
2017-02-15T03:35:45.129Z,13.79
2017-02-15T03:36:55.898Z,13.79
2017-02-15T03:38:06.672Z,13.98
2017-02-15T03:39:17.043Z,13.89
2017-02-15T03:40:27.424Z,13.98
2017-02-15T03:41:38.079Z,13.98
2017-02-15T03:42:48.445Z,13.98
2017-02-15T03:43:59.214Z,13.89
2017-02-15T03:45:09.178Z,13.89
2017-02-15T03:46:19.931Z,13.79
2017-02-15T03:47:30.956Z,13.6
2017-02-15T03:48:41.715Z,13.79
2017-02-15T03:49:52.471Z,13.89
2017-02-15T03:51:03.219Z,13.89
2017-02-15T03:52:13.568Z,14.08
2017-02-15T03:53:24.640Z,13.98
2017-02-15T03:54:35.011Z,13.89
2017-02-15T03:55:45.373Z,13.79
2017-02-15T03:56:56.128Z,13.7
2017-02-15T03:58:06.503Z,13.98
2017-02-15T03:59:17.508Z,13.79
2017-02-15T04:00:28.266Z,13.98
2017-02-15T04:01:39.041Z,13.79
2017-02-15T04:02:49.808Z,13.7
2017-02-15T04:04:00.182Z,13.98
2017-02-15T04:05:11.184Z,13.79
2017-02-15T04:06:21.947Z,13.89
2017-02-15T04:07:32.317Z,13.98
2017-02-15T04:08:43.072Z,14.08
2017-02-15T04:09:53.838Z,13.7
2017-02-15T04:11:04.502Z,13.79
2017-02-15T04:12:14.486Z,13.89
2017-02-15T04:13:24.867Z,14.08
2017-02-15T04:14:35.619Z,13.98
2017-02-15T04:15:45.991Z,13.79
2017-02-15T04:16:57.016Z,13.79
2017-02-15T04:18:07.774Z,13.79
2017-02-15T04:19:18.535Z,13.79
2017-02-15T04:20:29.302Z,13.7
2017-02-15T04:21:40.081Z,13.79
2017-02-15T04:22:50.315Z,13.7
2017-02-15T04:24:00.671Z,13.79
2017-02-15T04:25:11.018Z,13.89
2017-02-15T04:26:20.987Z,13.7
2017-02-15T04:27:31.748Z,13.89
2017-02-15T04:28:42.379Z,13.7
2017-02-15T04:29:52.769Z,13.98
2017-02-15T04:31:03.134Z,13.89
2017-02-15T04:32:13.518Z,13.79
2017-02-15T04:33:24.280Z,13.89
2017-02-15T04:34:35.294Z,13.89
2017-02-15T04:35:45.665Z,13.98
2017-02-15T04:36:56.078Z,13.89
2017-02-15T04:38:06.845Z,13.79
2017-02-15T04:39:16.836Z,13.6
2017-02-15T04:40:27.860Z,14.17
2017-02-15T04:41:37.851Z,13.7
2017-02-15T04:42:48.619Z,13.79
2017-02-15T04:43:59.368Z,13.89
2017-02-15T04:45:09.351Z,13.79
2017-02-15T04:46:20.369Z,13.7
2017-02-15T04:47:31.121Z,13.98
2017-02-15T04:48:41.886Z,13.7
2017-02-15T04:49:52.641Z,13.7
2017-02-15T04:51:02.622Z,13.98
2017-02-15T04:52:13.630Z,13.89
2017-02-15T04:53:23.607Z,13.98
2017-02-15T04:54:33.959Z,13.79
2017-02-15T04:55:44.331Z,13.89
2017-02-15T04:56:54.680Z,13.98
2017-02-15T04:58:05.687Z,13.7
2017-02-15T04:59:16.035Z,13.89
2017-02-15T05:00:27.057Z,13.98
2017-02-15T05:01:37.024Z,13.98
2017-02-15T05:02:47.784Z,13.89
2017-02-15T05:03:58.407Z,13.98
2017-02-15T05:05:09.185Z,13.98
2017-02-15T05:06:19.150Z,13.89
2017-02-15T05:07:29.928Z,13.98
2017-02-15T05:08:40.678Z,13.98
2017-02-15T05:09:51.717Z,13.41
2017-02-15T05:11:02.478Z,13.6
2017-02-15T05:12:12.850Z,13.51
2017-02-15T05:13:23.207Z,13.88
2017-02-15T05:14:33.595Z,13.51
2017-02-15T05:15:43.818Z,13.79
2017-02-15T05:16:54.606Z,13.49
2017-02-15T05:18:04.990Z,13.31
2017-02-15T05:19:15.749Z,13.41
2017-02-15T05:20:26.514Z,13.31
2017-02-15T05:21:37.143Z,13.41
2017-02-15T05:22:47.937Z,13.6
2017-02-15T05:23:58.303Z,13.51
2017-02-15T05:25:08.680Z,13.41
2017-02-15T05:26:19.459Z,13.41
2017-02-15T05:27:29.691Z,13.31
2017-02-15T05:28:39.640Z,13.41
2017-02-15T05:29:50.591Z,13.41
2017-02-15T05:31:00.584Z,13.02
2017-02-15T05:32:11.340Z,13.31
2017-02-15T05:33:22.360Z,13.31
2017-02-15T05:34:33.134Z,13.41
2017-02-15T05:35:43.109Z,13.31
2017-02-15T05:36:53.858Z,13.02
2017-02-15T05:38:04.235Z,13.21
2017-02-15T05:39:14.898Z,13.4
2017-02-15T05:40:25.659Z,13.31
2017-02-15T05:41:36.459Z,13.21
2017-02-15T05:42:46.830Z,13.31
2017-02-15T05:43:57.198Z,13.21
2017-02-15T05:45:08.235Z,13.31
2017-02-15T05:46:19.000Z,13.12
2017-02-15T05:47:29.756Z,13.6
2017-02-15T05:48:40.526Z,13.02
2017-02-15T05:49:50.923Z,13.21
2017-02-15T05:51:01.949Z,13.31
2017-02-15T05:52:12.325Z,13.02
2017-02-15T05:53:22.690Z,13.12
2017-02-15T05:54:33.467Z,13.12
2017-02-15T05:55:43.823Z,13.02
2017-02-15T05:56:54.447Z,13.12
2017-02-15T05:58:05.208Z,13.21
2017-02-15T05:59:15.583Z,13.12
2017-02-15T06:00:25.569Z,13.12
2017-02-15T06:01:36.319Z,13.02
2017-02-15T06:02:47.317Z,13.21
2017-02-15T06:03:58.079Z,13.21
2017-02-15T06:05:08.428Z,13.12
2017-02-15T06:06:19.194Z,13.21
2017-02-15T06:07:29.563Z,13.31
2017-02-15T06:08:40.571Z,13.12
2017-02-15T06:09:50.546Z,13.49
2017-02-15T06:11:01.312Z,13.12
2017-02-15T06:12:12.063Z,13.12
2017-02-15T06:13:23.082Z,13.21
2017-02-15T06:14:34.114Z,13.12
2017-02-15T06:15:44.863Z,13.12
2017-02-15T06:16:55.621Z,13.21
2017-02-15T06:18:06.397Z,13.12
2017-02-15T06:19:17.207Z,13.12
2017-02-15T06:20:27.032Z,13.41
2017-02-15T06:21:37.398Z,13.12
2017-02-15T06:22:48.172Z,13.12
2017-02-15T06:23:58.945Z,12.93
2017-02-15T06:25:09.314Z,13.21
2017-02-15T06:26:20.324Z,12.92
2017-02-15T06:27:30.706Z,13.21
2017-02-15T06:28:41.061Z,13.12
2017-02-15T06:29:52.089Z,13.21
2017-02-15T06:31:02.463Z,13.02
2017-02-15T06:32:12.685Z,13.02
2017-02-15T06:33:22.654Z,12.84
2017-02-15T06:34:33.029Z,13.02
2017-02-15T06:35:43.793Z,12.84
2017-02-15T06:36:53.759Z,12.84
2017-02-15T06:38:04.764Z,12.93
2017-02-15T06:39:15.538Z,13.02
2017-02-15T06:40:25.906Z,12.84
2017-02-15T06:41:36.665Z,12.84
2017-02-15T06:42:46.252Z,12.84
2017-02-15T06:43:56.915Z,12.55
2017-02-15T06:45:06.888Z,12.64
2017-02-15T06:46:17.275Z,13.02
2017-02-15T06:47:27.642Z,12.93
2017-02-15T06:48:38.020Z,12.83
2017-02-15T06:49:49.099Z,12.74
2017-02-15T06:50:59.448Z,12.74
2017-02-15T06:52:10.201Z,12.64
2017-02-15T06:53:20.991Z,12.74
2017-02-15T06:54:31.772Z,12.74
2017-02-15T06:55:42.511Z,12.84
2017-02-15T06:56:53.314Z,12.84
2017-02-15T06:58:04.086Z,12.84
2017-02-15T06:59:14.037Z,12.35
2017-02-15T07:00:24.800Z,12.64
2017-02-15T07:01:35.457Z,12.64
2017-02-15T07:02:45.813Z,12.45
2017-02-15T07:03:56.578Z,12.45
2017-02-15T07:05:07.340Z,12.55
2017-02-15T07:06:18.101Z,12.45
2017-02-15T07:07:29.127Z,12.45
2017-02-15T07:08:39.931Z,12.74
2017-02-15T07:09:50.719Z,12.64
2017-02-15T07:11:01.091Z,12.55
2017-02-15T07:12:11.078Z,12.84
2017-02-15T07:13:21.358Z,12.64
2017-02-15T07:14:32.108Z,12.45
2017-02-15T07:15:42.869Z,12.55
2017-02-15T07:16:53.635Z,12.55
2017-02-15T07:18:04.411Z,12.55
2017-02-15T07:19:15.052Z,12.35
2017-02-15T07:20:25.829Z,12.55
2017-02-15T07:21:36.592Z,12.55
2017-02-15T07:22:46.596Z,12.55
2017-02-15T07:23:57.457Z,12.45
2017-02-15T07:25:08.807Z,12.46
2017-02-15T07:26:19.274Z,12.55
2017-02-15T07:27:29.669Z,12.65
2017-02-15T07:28:40.440Z,12.55
2017-02-15T07:29:51.193Z,12.46
2017-02-15T07:31:02.228Z,12.55
2017-02-15T07:32:13.004Z,12.46
2017-02-15T07:33:23.769Z,12.55
2017-02-15T07:34:34.533Z,12.74
2017-02-15T07:35:45.328Z,12.65
2017-02-15T07:36:55.948Z,12.55
2017-02-15T07:38:06.339Z,12.65
2017-02-15T07:39:16.714Z,12.55
2017-02-15T07:40:27.500Z,12.46
2017-02-15T07:41:38.312Z,12.55
2017-02-15T07:42:48.962Z,12.46
2017-02-15T07:43:59.342Z,12.65
2017-02-15T07:45:08.928Z,12.46
2017-02-15T07:46:19.697Z,12.55
2017-02-15T07:47:30.476Z,12.55
2017-02-15T07:48:41.489Z,12.55
2017-02-15T07:49:51.860Z,12.65
2017-02-15T07:51:02.632Z,12.46
2017-02-15T07:52:13.403Z,12.55
2017-02-15T07:53:24.188Z,12.55
2017-02-15T07:54:35.215Z,12.55
2017-02-15T07:55:45.994Z,12.55
2017-02-15T07:56:56.388Z,12.46
2017-02-15T07:58:06.382Z,12.46
2017-02-15T07:59:16.366Z,12.46
2017-02-15T08:00:26.993Z,12.46
2017-02-15T08:01:37.363Z,12.75
2017-02-15T08:02:47.735Z,12.55
2017-02-15T08:03:58.715Z,12.55
2017-02-15T08:05:09.105Z,12.56
2017-02-15T08:06:19.749Z,12.55
2017-02-15T08:07:30.785Z,12.56
2017-02-15T08:08:41.176Z,12.56
2017-02-15T08:09:51.557Z,12.85
2017-02-15T08:11:02.359Z,13.42
2017-02-15T08:12:13.367Z,13.9
2017-02-15T08:13:23.951Z,15.05
2017-02-15T08:14:34.714Z,15.63
2017-02-15T08:15:45.079Z,16.02
2017-02-15T08:16:55.888Z,16.4
2017-02-15T08:18:06.531Z,16.88
2017-02-15T08:19:16.913Z,16.88
2017-02-15T08:20:27.688Z,17.17
2017-02-15T08:21:38.040Z,17.46
2017-02-15T08:22:48.007Z,16.88
2017-02-15T08:23:58.638Z,16.21
2017-02-15T08:25:09.428Z,15.92
2017-02-15T08:26:19.808Z,15.64
2017-02-15T08:27:30.202Z,15.35
2017-02-15T08:28:40.992Z,15.16
2017-02-15T08:29:52.028Z,14.97
2017-02-15T08:31:02.426Z,14.77
2017-02-15T08:32:12.820Z,14.87
2017-02-15T08:33:23.594Z,14.29
2017-02-15T08:34:34.416Z,14.39
2017-02-15T08:35:45.476Z,14.48
2017-02-15T08:36:55.844Z,14.48
2017-02-15T08:38:06.614Z,14.48
2017-02-15T08:39:16.988Z,14.29
2017-02-15T08:40:27.762Z,14.1
2017-02-15T08:41:38.791Z,14.39
2017-02-15T08:42:49.166Z,14.39
2017-02-15T08:43:59.521Z,14.1
2017-02-15T08:45:10.006Z,14.39
2017-02-15T08:46:20.365Z,14.48
2017-02-15T08:47:31.402Z,15.16
2017-02-15T08:48:42.224Z,15.83
2017-02-15T08:49:52.221Z,16.5
2017-02-15T08:51:02.999Z,16.7
2017-02-15T08:52:13.828Z,16.8
2017-02-15T08:53:24.885Z,17.56
2017-02-15T08:54:35.279Z,17.66
2017-02-15T08:55:46.099Z,18.52
2017-02-15T08:56:56.477Z,18.52
2017-02-15T08:58:06.854Z,18.43
2017-02-15T08:59:17.466Z,19.1
2017-02-15T09:00:28.272Z,19.29
2017-02-15T09:01:38.682Z,19.59
2017-02-15T09:02:49.490Z,19.68
2017-02-15T09:04:00.339Z,19.67
2017-02-15T09:05:11.367Z,19.1
2017-02-15T09:06:22.152Z,19
2017-02-15T09:07:32.928Z,18.91
2017-02-15T09:08:42.911Z,17.76
2017-02-15T09:09:53.678Z,17.85
2017-02-15T09:11:04.323Z,17.76
2017-02-15T09:12:14.695Z,17.94
2017-02-15T09:13:25.479Z,17.86
2017-02-15T09:14:36.266Z,17.47
2017-02-15T09:15:46.643Z,17.76
2017-02-15T09:16:57.670Z,17.66
2017-02-15T09:18:08.463Z,17.85
2017-02-15T09:19:18.866Z,17.94
2017-02-15T09:20:29.237Z,17.57
2017-02-15T09:21:40.025Z,17.09
2017-02-15T09:22:50.662Z,16.9
2017-02-15T09:24:01.469Z,16.52
2017-02-15T09:25:12.244Z,15.83
2017-02-15T09:26:23.042Z,15.83
2017-02-15T09:27:33.441Z,15.93
2017-02-15T09:28:44.578Z,15.93
2017-02-15T09:29:54.979Z,15.55
2017-02-15T09:31:05.768Z,15.55
2017-02-15T09:32:15.731Z,15.83
2017-02-15T09:33:26.517Z,15.74
2017-02-15T09:34:37.261Z,15.26
2017-02-15T09:35:48.004Z,15.16
2017-02-15T09:36:57.619Z,15.26
2017-02-15T09:38:08.015Z,15.36
2017-02-15T09:39:18.385Z,15.64
2017-02-15T09:40:28.641Z,15.64
2017-02-15T09:41:39.409Z,15.64
2017-02-15T09:42:50.223Z,15.55
2017-02-15T09:44:01.034Z,15.64
2017-02-15T09:45:11.814Z,15.74
2017-02-15T09:46:22.831Z,15.16
2017-02-15T09:47:33.605Z,14.87
2017-02-15T09:48:44.415Z,14.87
2017-02-15T09:49:55.204Z,14.97
2017-02-15T09:51:05.978Z,15.74
2017-02-15T09:52:17.630Z,15.64
2017-02-15T09:53:28.872Z,15.74
2017-02-15T09:54:39.639Z,15.16
2017-02-15T09:55:50.024Z,15.55
2017-02-15T09:57:00.020Z,15.64
2017-02-15T09:58:10.751Z,15.36
2017-02-15T09:59:23.103Z,15.45
2017-02-15T10:00:34.236Z,15.26
2017-02-15T10:01:45.061Z,15.46
2017-02-15T10:02:55.849Z,15.26
2017-02-15T10:04:06.888Z,15.16
2017-02-15T10:05:17.659Z,14.97
2017-02-15T10:06:28.453Z,15.07
2017-02-15T10:07:39.253Z,14.87
2017-02-15T10:08:49.627Z,15.07
2017-02-15T10:10:15.153Z,15.36
2017-02-15T10:11:25.915Z,15.74
2017-02-15T10:12:36.294Z,15.74
2017-02-15T10:13:46.668Z,15.65
2017-02-15T10:14:57.285Z,15.55
2017-02-15T10:16:08.069Z,15.65
2017-02-15T10:17:18.843Z,15.55
2017-02-15T10:18:29.647Z,15.84
2017-02-15T10:19:40.437Z,15.65
2017-02-15T10:20:51.080Z,15.55
2017-02-15T10:22:01.704Z,15.08
2017-02-15T10:23:12.492Z,15.26
2017-02-15T10:24:22.888Z,14.98
2017-02-15T10:25:33.269Z,14.59
2017-02-15T10:26:44.584Z,14.88
2017-02-15T10:27:55.355Z,14.88
2017-02-15T10:29:06.143Z,14.98
2017-02-15T10:30:16.917Z,14.98
2017-02-15T10:31:27.314Z,14.98
2017-02-15T10:32:38.350Z,14.69
2017-02-15T10:33:48.728Z,14.4
2017-02-15T10:34:59.122Z,14.5
2017-02-15T10:36:09.880Z,14.39
2017-02-15T10:37:20.282Z,14.5
2017-02-15T10:38:31.295Z,14.31
2017-02-15T10:39:42.079Z,14.31
2017-02-15T10:40:52.063Z,14.31
2017-02-15T10:42:02.837Z,14.31
2017-02-15T10:43:13.227Z,14.02
2017-02-15T10:44:23.874Z,13.82
2017-02-15T10:45:34.273Z,13.73
2017-02-15T10:46:44.684Z,13.92
2017-02-15T10:47:55.094Z,14.02
2017-02-15T10:49:05.873Z,13.92
2017-02-15T10:50:16.524Z,13.82
2017-02-15T10:51:26.895Z,13.92
2017-02-15T10:52:37.657Z,13.73
2017-02-15T10:53:47.624Z,13.82
2017-02-15T10:54:58.459Z,13.64
2017-02-15T10:56:09.148Z,13.44
2017-02-15T10:57:19.519Z,13.44
2017-02-15T10:58:29.910Z,13.25
2017-02-15T10:59:40.313Z,13.35
2017-02-15T11:00:50.688Z,13.44
2017-02-15T11:02:01.702Z,13.35
2017-02-15T11:03:12.476Z,13.54
2017-02-15T11:04:22.834Z,13.25
2017-02-15T11:05:33.600Z,13.06
2017-02-15T11:06:44.383Z,13.06
2017-02-15T11:07:55.027Z,13.15
2017-02-15T11:09:32.874Z,12.96
2017-02-15T11:10:43.308Z,12.87
2017-02-15T11:11:53.701Z,12.67
2017-02-15T11:13:04.722Z,12.48
2017-02-15T11:14:15.113Z,12.58
2017-02-15T11:15:25.873Z,12.77
2017-02-15T11:16:36.668Z,12.77
2017-02-15T11:17:47.052Z,12.48
2017-02-15T11:18:57.689Z,12.58
2017-02-15T11:20:08.464Z,12.58
2017-02-15T11:21:18.899Z,12.29
2017-02-15T11:22:29.676Z,12.29
2017-02-15T11:23:40.070Z,12.29
2017-02-15T11:24:50.696Z,12.1
2017-02-15T11:26:01.066Z,12.19
2017-02-15T11:27:11.843Z,12.1
2017-02-15T11:28:22.619Z,12
2017-02-15T11:29:33.376Z,12.29
2017-02-15T11:30:44.405Z,12.19
2017-02-15T11:31:55.211Z,12.29
2017-02-15T11:33:06.021Z,12.1
2017-02-15T11:34:16.806Z,12.19
2017-02-15T11:35:27.578Z,11.91
2017-02-15T11:36:38.210Z,12.3
2017-02-15T11:37:48.973Z,12.38
2017-02-15T11:38:59.751Z,12.19
2017-02-15T11:40:09.767Z,12.19
2017-02-15T11:41:20.153Z,12
2017-02-15T11:42:31.190Z,12.2
2017-02-15T11:43:41.965Z,11.82
2017-02-15T11:44:51.945Z,12.01
2017-02-15T11:46:02.349Z,11.81
2017-02-15T11:47:13.159Z,11.91
2017-02-15T11:48:23.948Z,11.61
2017-02-15T11:49:34.736Z,11.91
2017-02-15T11:50:45.127Z,12
2017-02-15T11:51:55.507Z,12
2017-02-15T11:53:05.907Z,12
2017-02-15T11:54:16.170Z,12.1
2017-02-15T11:55:25.753Z,12
2017-02-15T11:56:36.528Z,12.1
2017-02-15T11:57:47.335Z,11.53
2017-02-15T11:58:58.118Z,11.91
2017-02-15T12:00:08.362Z,11.62
2017-02-15T12:01:19.140Z,11.53
2017-02-15T12:02:29.499Z,11.72
2017-02-15T12:03:40.257Z,11.62
2017-02-15T12:04:50.398Z,11.82
2017-02-15T12:06:01.051Z,11.72
2017-02-15T12:07:11.823Z,11.82
2017-02-15T12:08:22.580Z,11.91
2017-02-15T12:09:32.950Z,11.72
2017-02-15T12:10:43.748Z,11.72
2017-02-15T12:11:54.782Z,11.82
2017-02-15T12:13:05.545Z,11.91
2017-02-15T12:14:15.934Z,11.43
2017-02-15T12:15:26.308Z,11.43
2017-02-15T12:16:36.682Z,11.33
2017-02-15T12:17:47.313Z,11.24
2017-02-15T12:18:57.710Z,11.33
2017-02-15T12:20:08.482Z,11.33
2017-02-15T12:21:18.871Z,11.43
2017-02-15T12:22:29.633Z,11.33
2017-02-15T12:23:40.301Z,11.24
2017-02-15T12:24:50.711Z,11.24
2017-02-15T12:26:01.492Z,11.43
2017-02-15T12:27:12.274Z,11.33
2017-02-15T12:28:23.064Z,11.24
2017-02-15T12:29:34.102Z,11.24
2017-02-15T12:30:44.083Z,11.24
2017-02-15T12:31:54.455Z,11.15
2017-02-15T12:33:05.224Z,11.33
2017-02-15T12:34:15.991Z,11.33
2017-02-15T12:35:27.053Z,11.33
2017-02-15T12:36:37.834Z,11.33
2017-02-15T12:37:48.227Z,11.33
2017-02-15T12:38:58.204Z,11.33
2017-02-15T12:40:08.982Z,11.24
2017-02-15T12:41:18.810Z,11.33
2017-02-15T12:42:29.187Z,11.24
2017-02-15T12:43:39.955Z,11.33
2017-02-15T12:44:49.945Z,11.33
2017-02-15T12:45:59.906Z,11.43
2017-02-15T12:47:10.515Z,11.43
2017-02-15T12:48:21.303Z,11.24
2017-02-15T12:49:31.700Z,11.24
2017-02-15T12:50:41.688Z,11.24
2017-02-15T12:51:52.505Z,11.33
2017-02-15T12:53:03.136Z,11.33
2017-02-15T12:54:13.507Z,11.24
2017-02-15T12:55:24.295Z,11.33
2017-02-15T12:56:35.076Z,11.33
2017-02-15T12:57:45.073Z,11.24
2017-02-15T12:58:55.735Z,11.43
2017-02-15T13:00:06.500Z,11.53
2017-02-15T13:01:16.877Z,11.53
2017-02-15T13:02:27.642Z,11.43
2017-02-15T13:03:38.426Z,11.43
2017-02-15T13:04:49.121Z,11.53
2017-02-15T13:05:59.907Z,11.33
2017-02-15T13:07:10.310Z,11.33
2017-02-15T13:08:21.085Z,11.33
2017-02-15T13:09:31.500Z,11.72
2017-02-15T13:10:42.527Z,11.53
2017-02-15T13:11:52.905Z,11.62
2017-02-15T13:13:03.283Z,11.72
2017-02-15T13:14:14.073Z,11.53
2017-02-15T13:15:24.857Z,11.62
2017-02-15T13:16:35.491Z,11.82
2017-02-15T13:17:45.085Z,11.71
2017-02-15T13:18:55.847Z,11.61
2017-02-15T13:20:06.644Z,11.62
2017-02-15T13:21:17.053Z,11.62
2017-02-15T13:22:27.683Z,11.72
2017-02-15T13:23:38.048Z,11.62
2017-02-15T13:24:48.032Z,11.62
2017-02-15T13:25:58.046Z,11.61
2017-02-15T13:27:08.823Z,11.61
2017-02-15T13:28:19.852Z,11.71
2017-02-15T13:29:30.628Z,11.81
2017-02-15T13:30:41.431Z,11.62
2017-02-15T13:31:51.809Z,11.53
2017-02-15T13:33:01.799Z,11.72
2017-02-15T13:34:11.686Z,11.91
2017-02-15T13:35:22.065Z,11.91
2017-02-15T13:36:32.873Z,11.43
2017-02-15T13:37:43.268Z,11.53
2017-02-15T13:38:53.248Z,11.82
2017-02-15T13:40:04.378Z,11.53
2017-02-15T13:41:15.166Z,11.43
2017-02-15T13:42:25.578Z,11.33
2017-02-15T13:43:35.983Z,11.33
2017-02-15T13:44:46.369Z,11.62
2017-02-15T13:45:57.070Z,11.15
2017-02-15T13:47:07.451Z,11.15
2017-02-15T13:48:18.259Z,11.04
2017-02-15T13:49:29.034Z,11.15
2017-02-15T13:50:39.429Z,11.05
2017-02-15T13:51:49.680Z,11.24
2017-02-15T13:53:00.046Z,11.05
2017-02-15T13:54:10.807Z,11.15
2017-02-15T13:55:21.171Z,11.15
2017-02-15T13:56:31.961Z,10.94
2017-02-15T13:57:43.123Z,11.05
2017-02-15T13:58:54.118Z,10.85
2017-02-15T14:00:04.909Z,10.76
2017-02-15T14:01:15.688Z,10.85
2017-02-15T14:02:26.445Z,10.95
2017-02-15T14:03:36.340Z,10.85
2017-02-15T14:04:47.118Z,10.57
2017-02-15T14:05:57.921Z,10.95
2017-02-15T14:07:08.314Z,11.15
2017-02-15T14:08:19.115Z,11.05
2017-02-15T14:09:29.769Z,10.76
2017-02-15T14:10:40.558Z,10.47
2017-02-15T14:11:51.336Z,10.76
2017-02-15T14:13:02.114Z,10.66
2017-02-15T14:14:12.536Z,10.94
2017-02-15T14:15:23.180Z,10.66
2017-02-15T14:16:33.973Z,10.85
2017-02-15T14:17:44.780Z,10.56
2017-02-15T14:18:55.555Z,10.38
2017-02-15T14:20:06.341Z,10.47
2017-02-15T14:21:16.952Z,10.47
2017-02-15T14:22:27.344Z,10.38
2017-02-15T14:23:38.120Z,10.66
2017-02-15T14:24:49.060Z,10.38
2017-02-15T14:25:59.480Z,10.57
2017-02-15T14:27:10.493Z,10.57
2017-02-15T14:28:21.308Z,10.28
2017-02-15T14:29:32.104Z,10.57
2017-02-15T14:30:42.517Z,10.57
2017-02-15T14:31:53.301Z,10.37
2017-02-15T14:33:04.363Z,10.47
2017-02-15T14:34:15.172Z,10.47
2017-02-15T14:35:25.957Z,10.47
2017-02-15T14:36:35.943Z,10.66
2017-02-15T14:37:46.738Z,10.56
2017-02-15T14:38:57.428Z,10.57
2017-02-15T14:40:08.214Z,10.57
2017-02-15T14:41:18.631Z,10.66
2017-02-15T14:42:29.426Z,10.47
2017-02-15T14:43:40.218Z,10.47
2017-02-15T14:44:50.909Z,10.38
2017-02-15T14:46:01.515Z,9.89
2017-02-15T14:47:11.912Z,10.38
2017-02-15T14:48:22.699Z,10.27
2017-02-15T14:49:33.498Z,10.37
2017-02-15T14:50:44.156Z,10.38
2017-02-15T14:51:54.527Z,9.99
2017-02-15T14:53:04.520Z,10.38
2017-02-15T14:54:14.528Z,10.17
2017-02-15T14:55:24.980Z,10.66
2017-02-15T14:56:35.998Z,10.17
2017-02-15T14:57:46.789Z,10.27
2017-02-15T14:58:57.181Z,10.47
2017-02-15T15:00:07.610Z,10.47
2017-02-15T15:01:18.383Z,10.56
2017-02-15T15:02:28.223Z,9.99
2017-02-15T15:03:39.012Z,10.08
2017-02-15T15:04:49.800Z,9.99
2017-02-15T15:06:00.601Z,9.99
2017-02-15T15:07:11.377Z,10.47
2017-02-15T15:08:22.415Z,10.08
2017-02-15T15:09:32.798Z,10.08
2017-02-15T15:10:43.567Z,10.08
2017-02-15T15:11:53.968Z,10.37
2017-02-15T15:13:04.769Z,9.99